CUZ weather

Alejandro Velasco Astete International Airport
Cusco, Cuzco Region, PerĂº

Public forecast

Using degrees Celsius for public forecast. Weather courtesy of forecast.io.

Current aviation weather report (METAR) for Alejandro Velasco Astete International Airport

Retrieved 2019/12/06 05:00 UTC (28 minutes ago):

SPZO 060500Z 31010KT 270V010 8000 -RA VCSH SCT040 OVC070 10/07 Q1033 RMK PP006

Aviation forecast (TAF) for Alejandro Velasco Astete International Airport

Retrieved 2019-12-06 00:38 UTC (5 hours ago):

TAF SPZO 052300Z 0600/0624 28010KT 9999 SCT050 BKN100 TX20/0619Z TN07/0611Z BECMG 0601/0603 00000KT RA SCT030TCU BKN070 BECMG 0607/0609 FEW020 SCT030 BKN100 BECMG 0616/0618 30012KT SCT050 BKN080